Time;durP1;ratioP1;P1;durP2;ratioP2;P2;SDS_P1;SDS_P2;PMS_P1;PMS_P2;Temp;Humidity;BMP_temperature;BMP_pressure;BME280_temperature;BME280_humidity;BME280_pressure;Samples;Min_cycle;Max_cycle;Signal;HPM_P1;HPM_P2
2023/03/27 00:01:06;;;;;;;0.40;0.40;;;6.70;99.90;;;;;;5012106;28;20186;-43
2023/03/27 00:03:32;;;;;;;0.43;0.30;;;6.70;99.90;;;;;;5010735;28;20609;-41
2023/03/27 00:06:03;;;;;;;0.87;0.40;;;6.70;99.90;;;;;;5011397;28;20178;-43
2023/03/27 00:08:31;;;;;;;0.40;0.40;;;6.70;99.90;;;;;;5012060;28;20236;-43
2023/03/27 00:10:57;;;;;;;0.30;0.30;;;6.70;99.90;;;;;;5004986;28;20178;-42
2023/03/27 00:13:23;;;;;;;0.73;0.50;;;6.70;99.90;;;;;;5019075;28;20209;-42
2023/03/27 00:15:50;;;;;;;0.40;0.40;;;6.70;99.90;;;;;;4993973;28;20225;-42
2023/03/27 00:18:16;;;;;;;0.40;0.40;;;6.70;99.90;;;;;;5010863;28;20194;-42
2023/03/27 00:20:43;;;;;;;0.50;0.50;;;6.70;99.90;;;;;;5011870;28;20181;-43
2023/03/27 00:23:08;;;;;;;0.53;0.50;;;6.70;99.90;;;;;;5011871;28;20236;-43
2023/03/27 00:25:34;;;;;;;0.37;0.37;;;6.70;99.90;;;;;;4992356;28;20280;-43
2023/03/27 00:28:01;;;;;;;0.70;0.50;;;6.70;99.90;;;;;;5011905;28;20187;-43
2023/03/27 00:30:29;;;;;;;0.50;0.43;;;6.80;99.90;;;;;;4978259;28;20175;-43
2023/03/27 00:32:56;;;;;;;0.70;0.67;;;6.80;99.90;;;;;;5012008;28;20208;-43
2023/03/27 00:35:24;;;;;;;0.40;0.40;;;6.80;99.90;;;;;;5010179;28;20201;-43
2023/03/27 00:37:49;;;;;;;0.83;0.50;;;6.80;99.90;;;;;;5012631;28;20186;-42
2023/03/27 00:40:18;;;;;;;0.50;0.50;;;6.90;99.90;;;;;;5011198;28;20213;-42
2023/03/27 00:42:47;;;;;;;0.47;0.47;;;6.80;99.90;;;;;;5011211;28;20206;-42
2023/03/27 00:45:21;;;;;;;0.40;0.40;;;6.80;99.90;;;;;;5010551;28;20677;-43
2023/03/27 00:47:54;;;;;;;0.57;0.40;;;6.90;99.90;;;;;;5026404;28;20339;-43
2023/03/27 00:50:24;;;;;;;0.50;0.40;;;6.80;99.90;;;;;;5024287;28;20277;-43
2023/03/27 00:52:55;;;;;;;0.50;0.50;;;6.70;99.90;;;;;;5010284;28;20191;-43
2023/03/27 00:55:25;;;;;;;0.50;0.50;;;6.70;99.90;;;;;;5026204;28;20185;-43
2023/03/27 00:57:56;;;;;;;0.40;0.40;;;6.70;99.90;;;;;;5009007;28;20736;-43
2023/03/27 01:00:22;;;;;;;0.40;0.40;;;6.70;99.90;;;;;;5011011;28;20222;-43
2023/03/27 01:02:49;;;;;;;0.40;0.40;;;6.60;99.90;;;;;;5011848;28;20217;-42
2023/03/27 01:05:17;;;;;;;0.40;0.40;;;6.60;99.90;;;;;;5009618;28;20220;-43
2023/03/27 01:07:45;;;;;;;0.30;0.30;;;6.50;99.90;;;;;;5009461;28;20177;-43
2023/03/27 01:10:12;;;;;;;0.30;0.30;;;6.50;99.90;;;;;;5012219;28;20182;-42
2023/03/27 01:12:58;;;;;;;0.40;0.40;;;6.50;99.90;;;;;;5011078;28;20202;-43
2023/03/27 01:15:50;;;;;;;0.40;0.40;;;6.50;99.90;;;;;;5012599;28;20184;-41
2023/03/27 01:18:54;;;;;;;0.63;0.40;;;6.50;99.90;;;;;;5011361;28;20189;-43
2023/03/27 01:21:32;;;;;;;0.40;0.40;;;6.40;99.90;;;;;;4979763;28;20173;-43
2023/03/27 01:24:22;;;;;;;0.40;0.40;;;6.40;99.90;;;;;;5009227;28;20298;-43
2023/03/27 01:27:04;;;;;;;0.40;0.40;;;6.30;99.90;;;;;;5004204;28;20185;-43
2023/03/27 01:29:49;;;;;;;0.40;0.40;;;6.30;99.90;;;;;;5026231;28;20201;-43
2023/03/27 01:32:55;;;;;;;0.40;0.40;;;6.30;99.90;;;;;;5026123;28;20202;-44
2023/03/27 01:35:42;;;;;;;0.50;0.50;;;6.30;99.90;;;;;;4994005;28;20186;-42
2023/03/27 01:38:23;;;;;;;0.50;0.50;;;6.30;99.90;;;;;;4993636;28;20276;-42
2023/03/27 01:41:13;;;;;;;0.60;0.50;;;6.30;99.90;;;;;;5009490;28;20196;-42
2023/03/27 01:43:53;;;;;;;0.50;0.50;;;6.20;99.90;;;;;;5007774;28;20219;-43
2023/03/27 01:46:44;;;;;;;0.50;0.50;;;6.20;99.90;;;;;;5014067;28;20205;-43
2023/03/27 01:49:18;;;;;;;0.43;0.43;;;6.20;99.90;;;;;;4993610;28;20236;-39
2023/03/27 01:51:57;;;;;;;0.40;0.40;;;6.00;99.90;;;;;;5022979;28;20329;-41
2023/03/27 01:54:33;;;;;;;0.60;0.60;;;6.00;99.90;;;;;;4989774;28;20232;-35
2023/03/27 01:57:14;;;;;;;0.53;0.53;;;6.00;99.90;;;;;;5006630;28;20195;-40
2023/03/27 01:59:45;;;;;;;0.70;0.70;;;6.10;99.90;;;;;;5009784;28;20248;-39
2023/03/27 02:02:32;;;;;;;1.87;0.90;;;6.10;99.90;;;;;;4992597;28;20207;-40
2023/03/27 02:05:03;;;;;;;0.80;0.80;;;6.10;99.90;;;;;;5020000;28;20181;-39
2023/03/27 02:07:37;;;;;;;2.00;1.30;;;5.90;99.90;;;;;;5010138;28;20188;-37
2023/03/27 02:10:08;;;;;;;2.10;1.40;;;5.80;99.90;;;;;;5012489;28;20189;-38
2023/03/27 02:12:44;;;;;;;1.50;1.40;;;5.50;99.90;;;;;;5013222;28;20196;-39
2023/03/27 02:15:23;;;;;;;4.03;2.10;;;5.40;99.90;;;;;;5004980;28;20183;-38
2023/03/27 02:17:55;;;;;;;2.97;2.00;;;5.40;99.90;;;;;;5013934;28;20336;-39
2023/03/27 02:20:23;;;;;;;4.47;2.77;;;5.30;99.90;;;;;;5003494;28;20180;-37
2023/03/27 02:22:50;;;;;;;3.03;2.73;;;5.30;99.90;;;;;;5028803;28;20346;-41
2023/03/27 02:25:25;;;;;;;5.63;3.27;;;5.20;99.90;;;;;;5012550;28;20229;-37
2023/03/27 02:28:09;;;;;;;4.73;3.47;;;5.20;99.90;;;;;;5014038;28;20206;-41
2023/03/27 02:30:50;;;;;;;5.87;3.83;;;5.20;99.90;;;;;;5017273;28;20180;-38
2023/03/27 02:33:51;;;;;;;6.10;4.20;;;5.20;99.90;;;;;;5029080;28;20322;-38
2023/03/27 02:36:32;;;;;;;6.43;4.20;;;5.20;99.90;;;;;;5026765;28;20198;-37
2023/03/27 02:39:07;;;;;;;5.63;4.63;;;5.20;99.90;;;;;;5012433;28;20176;-41
2023/03/27 02:42:02;;;;;;;8.10;4.77;;;5.20;99.90;;;;;;5018388;28;20271;-39
2023/03/27 02:45:09;;;;;;;7.03;4.70;;;5.20;99.90;;;;;;5028897;28;20242;-40
2023/03/27 02:48:01;;;;;;;7.20;4.40;;;5.20;99.90;;;;;;4991368;28;20179;-37
2023/03/27 02:51:02;;;;;;;5.67;4.30;;;5.10;99.90;;;;;;4959644;28;20310;-39
2023/03/27 02:53:31;;;;;;;5.23;3.90;;;5.10;99.90;;;;;;4987814;28;20208;-39
2023/03/27 02:56:00;;;;;;;7.67;4.10;;;5.10;99.90;;;;;;5023273;28;20187;-41
2023/03/27 02:58:43;;;;;;;5.60;3.60;;;5.00;99.90;;;;;;5024266;28;20184;-37
2023/03/27 03:01:21;;;;;;;4.20;2.93;;;4.90;99.90;;;;;;5017917;28;20180;-35
2023/03/27 03:04:18;;;;;;;7.07;3.43;;;4.90;99.90;;;;;;5011860;28;20309;-40
2023/03/27 03:07:13;;;;;;;7.80;3.50;;;4.80;99.90;;;;;;4964651;28;20184;-38
2023/03/27 03:09:40;;;;;;;3.43;2.97;;;4.90;99.90;;;;;;4997426;28;20171;-39
2023/03/27 03:12:07;;;;;;;6.83;3.00;;;4.90;99.90;;;;;;4999001;28;20257;-37
2023/03/27 03:14:42;;;;;;;4.20;2.80;;;4.80;99.90;;;;;;4996093;28;20182;-39
2023/03/27 03:17:09;;;;;;;5.73;2.83;;;4.70;99.90;;;;;;4999527;28;20179;-37
2023/03/27 03:19:36;;;;;;;5.03;3.20;;;4.70;99.90;;;;;;5012193;28;20186;-38
2023/03/27 03:22:03;;;;;;;6.10;3.40;;;4.60;99.90;;;;;;5028039;28;20182;-38
2023/03/27 03:24:31;;;;;;;7.53;3.30;;;4.60;99.90;;;;;;5012195;28;20175;-38
2023/03/27 03:26:58;;;;;;;7.17;3.30;;;4.50;99.90;;;;;;5020609;28;20262;-36
2023/03/27 03:29:29;;;;;;;7.80;2.97;;;4.40;99.90;;;;;;5012910;28;20785;-38
2023/03/27 03:32:15;;;;;;;4.43;2.80;;;4.30;99.90;;;;;;5011693;28;20195;-35
2023/03/27 03:34:45;;;;;;;7.83;2.87;;;4.30;99.90;;;;;;5005737;28;20206;-38
2023/03/27 03:37:13;;;;;;;6.00;2.73;;;4.30;99.90;;;;;;5016483;28;20208;-37
2023/03/27 03:39:39;;;;;;;7.13;3.00;;;4.20;99.90;;;;;;5013439;28;20180;-35
2023/03/27 03:42:05;;;;;;;5.00;3.07;;;4.30;99.90;;;;;;5027351;28;20214;-36
2023/03/27 03:44:33;;;;;;;6.03;2.60;;;4.20;99.90;;;;;;5009655;28;20168;-38
2023/03/27 03:47:06;;;;;;;9.37;2.63;;;4.20;99.90;;;;;;5011158;28;20179;-40
2023/03/27 03:49:31;;;;;;;5.33;2.30;;;4.10;99.90;;;;;;4997095;28;20176;-38
2023/03/27 03:51:57;;;;;;;6.67;2.40;;;4.20;99.90;;;;;;5010552;28;20290;-36
2023/03/27 03:54:23;;;;;;;5.27;2.13;;;4.20;99.90;;;;;;5027258;28;20171;-39
2023/03/27 03:56:49;;;;;;;7.33;2.40;;;4.10;99.90;;;;;;5007076;28;20211;-37
2023/03/27 03:59:15;;;;;;;8.07;2.17;;;4.10;99.90;;;;;;5003059;28;20535;-39
2023/03/27 04:02:01;;;;;;;6.90;2.30;;;4.10;99.90;;;;;;5011501;28;20191;-36
2023/03/27 04:04:30;;;;;;;7.40;2.53;;;4.10;99.90;;;;;;5009928;28;20175;-37
2023/03/27 04:07:09;;;;;;;8.37;2.23;;;4.00;99.90;;;;;;5009615;28;20175;-40
2023/03/27 04:09:41;;;;;;;7.17;2.33;;;4.00;99.90;;;;;;5015376;28;20183;-40
2023/03/27 04:12:13;;;;;;;5.17;2.03;;;4.00;99.90;;;;;;4978273;28;20207;-39
2023/03/27 04:14:46;;;;;;;4.13;1.73;;;4.00;99.90;;;;;;5026400;28;20183;-37
2023/03/27 04:17:38;;;;;;;4.43;2.00;;;3.90;99.90;;;;;;4975210;28;20210;-35
2023/03/27 04:20:09;;;;;;;8.43;2.23;;;3.80;99.90;;;;;;5010685;28;20187;-39
2023/03/27 04:22:36;;;;;;;6.27;2.07;;;3.80;99.90;;;;;;4992989;28;20212;-40
2023/03/27 04:25:06;;;;;;;7.17;1.70;;;3.80;99.90;;;;;;4997953;28;20182;-38
2023/03/27 04:27:34;;;;;;;3.43;1.30;;;3.80;99.90;;;;;;4996898;28;20187;-39
2023/03/27 04:30:15;;;;;;;7.17;1.93;;;3.80;99.90;;;;;;4997139;28;20164;-35
2023/03/27 04:32:59;;;;;;;5.50;1.60;;;3.80;99.90;;;;;;5011076;28;20217;-39
2023/03/27 04:35:51;;;;;;;5.27;2.03;;;3.70;99.90;;;;;;4998827;28;20223;-34
2023/03/27 04:38:19;;;;;;;8.73;2.00;;;3.60;99.90;;;;;;5009471;28;20270;-34
2023/03/27 04:40:48;;;;;;;7.37;1.93;;;3.60;99.90;;;;;;5004632;28;20202;-37
2023/03/27 04:43:16;;;;;;;5.47;1.87;;;3.50;99.90;;;;;;5026814;28;20222;-33
2023/03/27 04:45:46;;;;;;;6.77;2.30;;;3.50;99.90;;;;;;5026430;28;20178;-35
2023/03/27 04:48:14;;;;;;;7.73;2.33;;;3.40;99.90;;;;;;5026065;28;20233;-37
2023/03/27 04:50:42;;;;;;;9.57;1.70;;;3.40;99.90;;;;;;4993936;28;20193;-37
2023/03/27 04:53:10;;;;;;;8.77;2.10;;;3.20;99.90;;;;;;4995156;28;20269;-36
2023/03/27 04:55:44;;;;;;;8.83;2.03;;;3.20;99.90;;;;;;5010933;28;20199;-36
2023/03/27 04:58:11;;;;;;;6.47;1.83;;;3.20;99.90;;;;;;4993892;28;20183;-38
2023/03/27 05:00:38;;;;;;;9.37;2.60;;;3.20;99.90;;;;;;4993343;28;20171;-36
2023/03/27 05:03:33;;;;;;;9.33;2.40;;;3.20;99.90;;;;;;4942062;28;20217;-38
2023/03/27 05:06:25;;;;;;;5.10;2.20;;;3.10;99.90;;;;;;4977041;28;20176;-37
2023/03/27 05:08:51;;;;;;;3.47;1.93;;;3.00;99.90;;;;;;5011069;28;20182;-37
2023/03/27 05:11:24;;;;;;;10.80;1.93;;;2.90;99.90;;;;;;5009959;28;20313;-35
2023/03/27 05:13:50;;;;;;;10.03;2.03;;;2.90;99.90;;;;;;4995916;28;20217;-35
2023/03/27 05:16:20;;;;;;;9.67;2.37;;;2.80;99.90;;;;;;4993235;28;20174;-39
2023/03/27 05:18:50;;;;;;;6.03;2.23;;;2.80;99.90;;;;;;5014313;28;20183;-39
2023/03/27 05:21:18;;;;;;;8.50;2.23;;;2.70;99.90;;;;;;4994871;28;20190;-37
2023/03/27 05:23:44;;;;;;;7.67;2.40;;;2.70;99.90;;;;;;4992592;28;20202;-36
2023/03/27 05:26:10;;;;;;;11.97;2.30;;;2.60;99.90;;;;;;4992984;28;20283;-41
2023/03/27 05:28:51;;;;;;;8.13;2.30;;;2.60;99.90;;;;;;5009437;28;20183;-41
2023/03/27 05:31:18;;;;;;;6.40;1.90;;;2.50;99.90;;;;;;5010223;28;20182;-41
2023/03/27 05:34:19;;;;;;;8.40;1.87;;;2.50;99.90;;;;;;5010466;28;20737;-37
2023/03/27 05:36:48;;;;;;;6.03;1.63;;;2.50;99.90;;;;;;4993118;28;20194;-39
2023/03/27 05:39:15;;;;;;;7.77;1.87;;;2.40;99.90;;;;;;5009813;28;20186;-35
2023/03/27 05:41:43;;;;;;;3.97;1.70;;;2.40;99.90;;;;;;5009461;28;20245;-41
2023/03/27 05:44:10;;;;;;;10.90;2.00;;;2.40;99.90;;;;;;5013611;28;20194;-40
2023/03/27 05:46:41;;;;;;;8.00;2.03;;;2.30;99.90;;;;;;4981761;28;20175;-41
2023/03/27 05:49:14;;;;;;;9.03;1.90;;;2.30;99.90;;;;;;4997178;28;20184;-39
2023/03/27 05:51:41;;;;;;;6.07;1.90;;;2.30;99.90;;;;;;5029896;28;20178;-37
2023/03/27 05:54:07;;;;;;;9.27;2.00;;;2.30;99.90;;;;;;4980433;28;20220;-34
2023/03/27 05:56:38;;;;;;;7.17;1.80;;;2.30;99.90;;;;;;5004009;28;20178;-40
2023/03/27 05:59:04;;;;;;;6.97;1.80;;;2.30;99.90;;;;;;5012770;28;20193;-39
2023/03/27 06:01:34;;;;;;;8.83;1.93;;;2.30;99.90;;;;;;4998024;28;20174;-37
2023/03/27 06:04:01;;;;;;;9.93;2.20;;;2.30;99.90;;;;;;4996652;28;20599;-41
2023/03/27 06:06:53;;;;;;;6.50;1.80;;;2.30;99.90;;;;;;5011532;28;20186;-37
2023/03/27 06:09:19;;;;;;;8.73;1.97;;;2.30;99.90;;;;;;5005233;28;20194;-33
2023/03/27 06:12:04;;;;;;;5.67;1.80;;;2.30;99.90;;;;;;5015009;28;20183;-38
2023/03/27 06:14:35;;;;;;;9.10;2.07;;;2.40;99.90;;;;;;5012250;28;20174;-39
2023/03/27 06:17:28;;;;;;;7.67;2.53;;;2.40;99.90;;;;;;5011279;28;20261;-41
2023/03/27 06:20:09;;;;;;;10.50;1.90;;;2.50;99.90;;;;;;5012673;28;20187;-41
2023/03/27 06:22:45;;;;;;;8.17;1.77;;;2.60;99.90;;;;;;4996028;28;20211;-42
2023/03/27 06:25:14;;;;;;;9.97;2.47;;;2.60;99.90;;;;;;4996593;28;20175;-42
2023/03/27 06:27:42;;;;;;;11.30;2.00;;;2.70;99.90;;;;;;4996203;28;20182;-36
2023/03/27 06:30:09;;;;;;;9.40;1.70;;;2.70;99.90;;;;;;4996551;28;20186;-39
2023/03/27 06:32:36;;;;;;;5.60;1.97;;;2.80;99.90;;;;;;5013739;28;20206;-39
2023/03/27 06:35:08;;;;;;;7.80;2.10;;;2.80;99.90;;;;;;5012373;28;20193;-36
2023/03/27 06:38:01;;;;;;;8.57;1.80;;;2.70;99.90;;;;;;5003431;28;20176;-36
2023/03/27 06:40:30;;;;;;;9.13;1.67;;;2.80;99.90;;;;;;5012875;28;20174;-40
2023/03/27 06:43:02;;;;;;;3.97;1.70;;;2.80;99.90;;;;;;5012720;28;20231;-38
2023/03/27 06:45:37;;;;;;;7.67;1.80;;;2.90;99.90;;;;;;4980922;28;20179;-36
2023/03/27 06:48:23;;;;;;;7.73;1.90;;;2.90;99.90;;;;;;4999229;28;20181;-33
2023/03/27 06:50:52;;;;;;;9.80;1.70;;;2.90;99.90;;;;;;4997998;28;20711;-38
2023/03/27 06:53:19;;;;;;;10.03;2.10;;;2.90;99.90;;;;;;4996928;28;20229;-40
2023/03/27 06:55:47;;;;;;;9.83;2.03;;;3.00;99.90;;;;;;4994882;28;20190;-40
2023/03/27 06:58:17;;;;;;;9.27;1.87;;;3.00;99.90;;;;;;4995878;28;20257;-36
2023/03/27 07:00:44;;;;;;;6.30;1.70;;;3.10;99.90;;;;;;5012264;28;20279;-38
2023/03/27 07:03:13;;;;;;;11.47;2.00;;;3.00;99.90;;;;;;4996174;28;20207;-37
2023/03/27 07:05:59;;;;;;;4.47;1.83;;;2.80;99.90;;;;;;5013729;28;20218;-34
2023/03/27 07:08:29;;;;;;;4.77;1.93;;;2.90;99.90;;;;;;4995866;28;20295;-37
2023/03/27 07:10:58;;;;;;;10.30;1.50;;;2.90;99.90;;;;;;5011950;28;20187;-38
2023/03/27 07:13:25;;;;;;;8.13;2.03;;;2.90;99.90;;;;;;5011975;28;20215;-34
2023/03/27 07:15:51;;;;;;;9.77;2.00;;;2.90;99.90;;;;;;4995248;28;20179;-39
2023/03/27 07:18:20;;;;;;;13.20;2.00;;;2.80;99.90;;;;;;5011767;28;20179;-37
2023/03/27 07:20:53;;;;;;;7.80;1.77;;;3.00;99.90;;;;;;5011940;28;20269;-38
2023/03/27 07:23:22;;;;;;;8.13;1.93;;;2.90;99.90;;;;;;5011254;28;20207;-37
2023/03/27 07:25:58;;;;;;;10.40;1.87;;;2.90;99.90;;;;;;4979007;28;20191;-35
2023/03/27 07:28:50;;;;;;;10.30;2.40;;;3.00;99.90;;;;;;4984638;28;20210;-36
2023/03/27 07:33:52;;;;;;;10.57;2.10;;;3.30;99.90;;;;;;5049068;28;20248;-38
2023/03/27 07:36:28;;;;;;;9.43;2.00;;;3.40;99.90;;;;;;5047151;28;20189;-39
2023/03/27 07:39:03;;;;;;;12.43;2.10;;;3.50;99.90;;;;;;5052258;28;20173;-40
2023/03/27 07:41:29;;;;;;;8.90;2.63;;;3.80;99.90;;;;;;5041982;28;20193;-40
2023/03/27 07:43:58;;;;;;;5.97;1.77;;;4.10;99.90;;;;;;5045826;28;20249;-39
2023/03/27 07:46:29;;;;;;;5.30;1.60;;;4.20;99.90;;;;;;5035230;28;20228;-39
2023/03/27 07:48:57;;;;;;;6.87;1.70;;;4.40;99.90;;;;;;5034334;28;20202;-42
2023/03/27 07:51:24;;;;;;;7.53;2.10;;;4.50;99.90;;;;;;5018049;28;20202;-38
2023/03/27 07:53:55;;;;;;;10.50;2.50;;;4.60;99.90;;;;;;5033952;28;20198;-38
2023/03/27 07:56:25;;;;;;;8.33;1.53;;;4.40;99.90;;;;;;5027924;28;20173;-41
2023/03/27 07:59:19;;;;;;;12.83;2.07;;;4.30;99.90;;;;;;5023322;28;20175;-38
2023/03/27 08:01:49;;;;;;;7.40;1.83;;;4.20;99.90;;;;;;5043342;28;20204;-39
2023/03/27 08:04:18;;;;;;;4.97;1.37;;;4.30;99.90;;;;;;5033869;28;20178;-41
2023/03/27 08:06:58;;;;;;;5.00;1.60;;;4.20;99.90;;;;;;5035576;28;20224;-39
2023/03/27 08:09:24;;;;;;;3.93;1.40;;;4.30;99.90;;;;;;5055469;28;20183;-42
2023/03/27 08:11:50;;;;;;;4.67;1.70;;;4.30;99.90;;;;;;5041030;28;20202;-40
2023/03/27 08:14:16;;;;;;;5.60;1.53;;;4.40;99.90;;;;;;5024206;28;20202;-42
2023/03/27 08:16:43;;;;;;;5.07;1.63;;;4.30;99.90;;;;;;5037017;28;20169;-39
2023/03/27 08:19:10;;;;;;;5.07;1.63;;;4.10;99.90;;;;;;5052293;28;20242;-38
2023/03/27 08:21:48;;;;;;;4.97;1.87;;;3.90;99.90;;;;;;5040731;28;20190;-40
2023/03/27 08:24:14;;;;;;;6.80;1.90;;;3.90;99.90;;;;;;5062841;28;20189;-41
2023/03/27 08:27:12;;;;;;;4.53;1.30;;;4.00;99.90;;;;;;5077559;28;20197;-37
2023/03/27 08:30:06;;;;;;;7.77;1.73;;;4.20;99.90;;;;;;5064307;28;20162;-37
2023/03/27 08:32:41;;;;;;;7.83;1.63;;;4.50;99.90;;;;;;5080608;23;20284;-88
2023/03/27 08:35:09;;;;;;;8.37;1.57;;;4.70;99.90;;;;;;5070897;28;20210;-88
2023/03/27 08:37:47;;;;;;;7.43;1.80;;;4.80;99.90;;;;;;5055448;28;20174;-88
2023/03/27 08:40:57;;;;;;;;;;;;;;;;;;;;;
2023/03/27 08:43:44;;;;;;;5.57;1.77;;;4.70;99.90;;;;;;5071636;28;20174;-88
2023/03/27 08:46:13;;;;;;;5.07;1.60;;;4.80;99.90;;;;;;5056784;28;20193;-89
2023/03/27 08:48:52;;;;;;;5.33;1.43;;;4.90;99.90;;;;;;5074908;28;20203;-89
2023/03/27 08:51:33;;;;;;;5.53;1.70;;;5.10;99.90;;;;;;5074618;28;20186;-88
2023/03/27 08:54:07;;;;;;;5.33;1.40;;;5.30;99.90;;;;;;5074355;28;20200;-89
2023/03/27 08:56:34;;;;;;;7.13;1.57;;;5.40;99.90;;;;;;5073785;28;20669;-89
2023/03/27 08:59:00;;;;;;;7.70;1.83;;;5.10;99.90;;;;;;5057779;28;20241;-89
2023/03/27 09:01:57;;;;;;;3.70;1.70;;;5.00;99.90;;;;;;5091290;28;20176;-89
2023/03/27 09:04:43;;;;;;;4.70;1.30;;;5.00;99.90;;;;;;5074091;28;20172;-89
2023/03/27 09:07:34;;;;;;;6.97;1.90;;;5.00;99.90;;;;;;5074620;28;20200;-89
2023/03/27 09:10:32;;;;;;;4.13;1.40;;;4.90;99.90;;;;;;5060785;28;20188;-88
2023/03/27 09:13:25;;;;;;;7.80;1.77;;;4.80;99.90;;;;;;5058782;28;20208;-89
2023/03/27 09:16:01;;;;;;;7.53;1.47;;;4.90;99.90;;;;;;5090574;28;20220;-89
2023/03/27 09:18:33;;;;;;;4.77;1.23;;;5.00;99.90;;;;;;5073760;28;20168;-88
2023/03/27 09:21:28;;;;;;;5.07;1.60;;;5.10;99.90;;;;;;5074262;28;20181;-89
2023/03/27 09:24:00;;;;;;;7.63;1.70;;;5.20;99.90;;;;;;5069957;28;20189;-88
2023/03/27 09:26:56;;;;;;;4.10;1.20;;;5.20;99.90;;;;;;5078580;28;20238;-89
2023/03/27 09:29:41;;;;;;;4.70;1.40;;;5.40;99.90;;;;;;5054034;28;20183;-89
2023/03/27 09:32:38;;;;;;;4.40;1.20;;;5.70;99.90;;;;;;5066898;28;20231;-89
2023/03/27 09:35:04;;;;;;;5.83;1.50;;;5.90;99.90;;;;;;5070653;28;20195;-89
2023/03/27 09:37:30;;;;;;;4.70;1.40;;;5.80;99.90;;;;;;5087734;28;20220;-89
2023/03/27 09:40:00;;;;;;;5.87;1.43;;;5.70;99.90;;;;;;5071010;28;20206;-89
2023/03/27 09:42:35;;;;;;;6.73;1.70;;;5.60;99.90;;;;;;5070772;28;20264;-88
2023/03/27 09:45:09;;;;;;;3.97;1.23;;;5.70;99.90;;;;;;5053932;28;20208;-88
2023/03/27 09:48:00;;;;;;;4.93;1.20;;;5.90;99.90;;;;;;5053705;28;20615;-89
2023/03/27 09:50:40;;;;;;;6.50;1.30;;;5.90;99.90;;;;;;5038035;28;20168;-89
2023/03/27 09:53:18;;;;;;;5.83;1.40;;;5.60;99.90;;;;;;5054927;28;20207;-89
2023/03/27 09:56:04;;;;;;;1.27;0.90;;;5.80;99.90;;;;;;5053470;28;20205;-89
2023/03/27 09:58:45;;;;;;;3.57;1.17;;;5.90;99.90;;;;;;5057214;28;20158;-89
2023/03/27 10:01:26;;;;;;;3.80;1.30;;;6.10;99.90;;;;;;5073896;28;20183;-89
2023/03/27 10:03:56;;;;;;;5.87;1.40;;;6.20;99.90;;;;;;5073689;28;20183;-89
2023/03/27 10:06:47;;;;;;;5.57;1.50;;;6.20;99.90;;;;;;5059804;28;20213;-89
2023/03/27 10:09:33;;;;;;;4.70;1.57;;;6.40;99.90;;;;;;5073901;28;20309;-89
2023/03/27 10:12:17;;;;;;;5.00;1.03;;;6.60;99.90;;;;;;5090353;28;20212;-89
2023/03/27 10:14:48;;;;;;;3.17;1.00;;;6.60;99.90;;;;;;5073636;28;20303;-89
2023/03/27 10:17:22;;;;;;;5.93;2.03;;;6.80;99.90;;;;;;5073680;28;20208;-89
2023/03/27 10:20:07;;;;;;;4.93;0.93;;;7.00;99.90;;;;;;5073855;28;20252;-89
2023/03/27 10:22:39;;;;;;;4.47;1.33;;;7.30;99.90;;;;;;5073554;28;20209;-89
2023/03/27 10:25:15;;;;;;;3.53;0.97;;;7.20;99.90;;;;;;5073415;28;20203;-89
2023/03/27 10:27:52;;;;;;;3.97;1.20;;;6.90;99.90;;;;;;5054405;28;20271;-89
2023/03/27 10:30:44;;;;;;;3.70;1.17;;;6.90;99.90;;;;;;5056007;28;20225;-89
2023/03/27 10:33:29;;;;;;;6.70;1.30;;;6.50;99.90;;;;;;5077601;28;20215;-89
2023/03/27 10:36:10;;;;;;;5.63;1.37;;;6.60;99.90;;;;;;5076210;28;20196;-89
2023/03/27 10:38:40;;;;;;;4.87;1.13;;;7.00;99.90;;;;;;5075714;28;20183;-89
2023/03/27 10:41:18;;;;;;;3.87;1.50;;;6.90;99.90;;;;;;5061796;28;20329;-89
2023/03/27 10:43:50;;;;;;;4.33;1.37;;;6.50;99.90;;;;;;5060788;28;20177;-89
2023/03/27 10:46:21;;;;;;;4.53;1.30;;;6.40;99.90;;;;;;5076859;28;20264;-89
2023/03/27 10:49:00;;;;;;;2.37;1.13;;;6.60;99.90;;;;;;5076565;28;20178;-89
2023/03/27 10:51:41;;;;;;;3.17;0.97;;;6.70;99.90;;;;;;5060410;28;20189;-89
2023/03/27 10:54:17;;;;;;;2.77;1.20;;;6.40;99.90;;;;;;5060020;28;20200;-89
2023/03/27 10:56:51;;;;;;;2.57;1.20;;;6.50;99.90;;;;;;5061030;28;20203;-88
2023/03/27 10:59:28;;;;;;;3.30;1.17;;;6.90;99.90;;;;;;5059869;28;20179;-89
2023/03/27 11:02:03;;;;;;;2.33;0.90;;;7.10;99.90;;;;;;5060316;28;20179;-89
2023/03/27 11:04:52;;;;;;;4.93;1.10;;;6.90;99.90;;;;;;5059608;28;20171;-88
2023/03/27 11:07:26;;;;;;;3.70;1.23;;;6.50;99.90;;;;;;5076120;28;20179;-89
2023/03/27 11:10:25;;;;;;;3.77;1.27;;;6.60;99.90;;;;;;5076299;28;20266;-89
2023/03/27 11:13:00;;;;;;;6.17;1.47;;;7.00;99.90;;;;;;5057447;28;20261;-89
2023/03/27 11:15:37;;;;;;;3.83;1.00;;;7.40;99.90;;;;;;5092880;28;20199;-89
2023/03/27 11:18:27;;;;;;;2.23;1.13;;;7.70;99.90;;;;;;5089332;28;20240;-90
2023/03/27 11:21:11;;;;;;;3.53;0.97;;;8.00;99.90;;;;;;5091352;28;20173;-89
2023/03/27 11:23:49;;;;;;;3.57;0.97;;;8.00;99.90;;;;;;5091469;28;20180;-89
2023/03/27 11:26:26;;;;;;;3.57;1.10;;;7.60;99.90;;;;;;5092847;28;20203;-89
2023/03/27 11:29:04;;;;;;;3.27;1.30;;;7.50;99.90;;;;;;5059214;28;20273;-89
2023/03/27 11:31:48;;;;;;;1.97;1.07;;;7.90;99.90;;;;;;5077188;28;20188;-89
2023/03/27 11:34:47;;;;;;;4.63;1.17;;;8.10;99.90;;;;;;5075589;28;20176;-89
2023/03/27 11:37:45;;;;;;;3.67;1.23;;;8.40;99.90;;;;;;5077661;28;20187;-88
2023/03/27 11:40:19;;;;;;;2.70;1.10;;;8.60;99.90;;;;;;5075788;28;20175;-89
2023/03/27 11:42:47;;;;;;;2.47;1.10;;;8.50;99.90;;;;;;5075626;28;20193;-89
2023/03/27 11:45:22;;;;;;;4.47;1.60;;;8.50;99.90;;;;;;5075538;28;20200;-89
2023/03/27 11:48:18;;;;;;;4.10;1.37;;;8.90;99.90;;;;;;5069847;28;20183;-89
2023/03/27 11:51:09;;;;;;;2.53;1.20;;;9.20;99.90;;;;;;5064309;28;20334;-90
2023/03/27 11:53:57;;;;;;;3.40;1.30;;;9.70;99.90;;;;;;5074317;28;20180;-89
2023/03/27 11:56:54;;;;;;;4.00;1.10;;;9.90;99.90;;;;;;5065967;28;20200;-89
2023/03/27 11:59:49;;;;;;;4.10;1.23;;;9.90;99.90;;;;;;5084124;28;20173;-89
2023/03/27 12:03:19;;;;;;;3.73;1.27;;;10.00;99.90;;;;;;5085130;28;20255;-89
2023/03/27 12:05:48;;;;;;;2.47;1.00;;;10.10;99.90;;;;;;5022454;28;20206;-86
2023/03/27 12:08:21;;;;;;;2.87;1.20;;;9.80;99.90;;;;;;5009159;28;20202;-89
2023/03/27 12:10:53;;;;;;;7.37;1.63;;;9.50;99.90;;;;;;5074779;28;20249;-89
2023/03/27 12:14:07;;;;;;;4.13;1.37;;;9.30;99.90;;;;;;5074947;28;20226;-89
2023/03/27 12:16:49;;;;;;;4.27;2.40;;;9.20;99.90;;;;;;5075092;28;20205;-89
2023/03/27 12:19:40;;;;;;;2.37;1.10;;;9.50;99.90;;;;;;5074556;28;20173;-90
2023/03/27 12:22:26;;;;;;;2.87;1.13;;;9.50;99.90;;;;;;5074609;28;20168;-89
2023/03/27 12:25:20;;;;;;;3.23;0.90;;;9.00;99.90;;;;;;5074455;28;20242;-89
2023/03/27 12:28:52;;;;;;;1.60;0.87;;;9.00;99.90;;;;;;5010519;28;20191;-89
2023/03/27 12:31:48;;;;;;;3.37;1.27;;;9.30;99.90;;;;;;5059690;28;20200;-89
2023/03/27 12:34:41;;;;;;;2.40;1.03;;;8.90;99.90;;;;;;5074466;28;20176;-89
2023/03/27 12:37:12;;;;;;;2.33;0.90;;;8.60;99.90;;;;;;5074904;28;20173;-89
2023/03/27 12:39:49;;;;;;;3.30;1.07;;;8.80;99.90;;;;;;5091581;28;20160;-89
2023/03/27 12:42:39;;;;;;;3.87;1.30;;;9.20;99.90;;;;;;5074289;28;20259;-89
2023/03/27 12:45:13;;;;;;;1.70;0.87;;;9.60;99.90;;;;;;5074038;28;20203;-90
2023/03/27 12:48:04;;;;;;;2.43;0.87;;;9.80;99.90;;;;;;5091341;28;20183;-90
2023/03/27 12:50:40;;;;;;;3.40;1.30;;;10.10;99.90;;;;;;5090477;28;20180;-89
2023/03/27 12:53:05;;;;;;;2.63;1.00;;;10.00;99.90;;;;;;5090683;28;20172;-90
2023/03/27 12:55:38;;;;;;;2.77;1.00;;;9.70;99.90;;;;;;5073932;28;20193;-89
2023/03/27 12:58:32;;;;;;;2.57;0.90;;;9.40;99.90;;;;;;5071512;28;20189;-89
2023/03/27 13:01:42;;;;;;;4.90;1.00;;;9.10;99.90;;;;;;5076813;28;20161;-89
2023/03/27 13:04:29;;;;;;;2.77;1.23;;;8.90;99.90;;;;;;5055269;28;20215;-89
2023/03/27 13:07:11;;;;;;;2.03;1.00;;;8.90;99.90;;;;;;5074240;28;20179;-89
2023/03/27 13:10:14;;;;;;;3.20;0.90;;;8.90;99.90;;;;;;5077309;28;20241;-89
2023/03/27 13:13:21;;;;;;;2.50;0.87;;;9.30;99.90;;;;;;5058866;28;20191;-89
2023/03/27 13:16:30;;;;;;;2.97;1.00;;;9.60;99.90;;;;;;5058243;28;20208;-90
2023/03/27 13:19:12;;;;;;;1.40;0.60;;;9.80;99.90;;;;;;5055631;28;20189;-89
2023/03/27 13:22:18;;;;;;;1.63;0.93;;;9.90;99.90;;;;;;5069672;28;20174;-90
2023/03/27 13:24:51;;;;;;;1.90;0.80;;;10.20;99.90;;;;;;5054397;28;20236;-90
2023/03/27 13:27:44;;;;;;;1.40;0.87;;;10.60;99.90;;;;;;5078608;28;20271;-89
2023/03/27 13:30:41;;;;;;;3.60;0.83;;;10.50;99.90;;;;;;5054243;28;20298;-88
2023/03/27 13:33:29;;;;;;;3.93;1.10;;;9.90;99.90;;;;;;5091678;28;20183;-90
2023/03/27 13:36:09;;;;;;;4.30;1.27;;;9.60;99.90;;;;;;5067112;28;20196;-90
2023/03/27 13:38:52;;;;;;;1.77;0.90;;;9.70;99.90;;;;;;5073444;28;20210;-89
2023/03/27 13:41:43;;;;;;;3.60;1.23;;;9.90;99.90;;;;;;5070906;28;20179;-90
2023/03/27 13:44:53;;;;;;;2.53;1.20;;;10.10;99.90;;;;;;5061266;28;20283;-89
2023/03/27 13:47:34;;;;;;;2.60;1.10;;;10.10;99.90;;;;;;5042414;28;20667;-89
2023/03/27 13:50:26;;;;;;;1.40;0.93;;;10.30;99.90;;;;;;5060508;28;20177;-89
2023/03/27 13:52:53;;;;;;;3.10;1.50;;;10.30;99.90;;;;;;5059771;28;20201;-90
2023/03/27 13:55:50;;;;;;;3.70;1.57;;;10.30;99.90;;;;;;5087422;28;20196;-89